sensor_id;sensor_type;location;lat;lon;timestamp;P1;durP1;ratioP1;P2;durP2;ratioP2
84745;SDS011;74975;51.922;6.480;2024-03-23T00:52:34;13.48;;;4.72;;
84745;SDS011;74975;51.922;6.480;2024-03-23T00:55:07;8.65;;;5.30;;
84745;SDS011;74975;51.922;6.480;2024-03-23T00:57:39;8.60;;;4.03;;
84745;SDS011;74975;51.922;6.480;2024-03-23T01:00:11;13.23;;;4.97;;
84745;SDS011;74975;51.922;6.480;2024-03-23T01:05:17;12.63;;;3.72;;
84745;SDS011;74975;51.922;6.480;2024-03-23T01:07:48;7.53;;;3.85;;
84745;SDS011;74975;51.922;6.480;2024-03-23T01:10:23;10.77;;;4.22;;
84745;SDS011;74975;51.922;6.480;2024-03-23T01:12:58;12.00;;;5.45;;
84745;SDS011;74975;51.922;6.480;2024-03-23T01:15:30;10.55;;;5.10;;
84745;SDS011;74975;51.922;6.480;2024-03-23T01:18:04;15.07;;;4.78;;
84745;SDS011;74975;51.922;6.480;2024-03-23T01:20:41;14.82;;;4.80;;
84745;SDS011;74975;51.922;6.480;2024-03-23T01:23:13;15.57;;;5.03;;
84745;SDS011;74975;51.922;6.480;2024-03-23T01:25:56;13.23;;;4.55;;
84745;SDS011;74975;51.922;6.480;2024-03-23T01:28:35;15.88;;;5.35;;
84745;SDS011;74975;51.922;6.480;2024-03-23T01:31:12;15.40;;;5.30;;
84745;SDS011;74975;51.922;6.480;2024-03-23T01:33:45;12.27;;;5.57;;
84745;SDS011;74975;51.922;6.480;2024-03-23T01:36:20;16.60;;;5.85;;
84745;SDS011;74975;51.922;6.480;2024-03-23T01:38:54;17.00;;;6.50;;
84745;SDS011;74975;51.922;6.480;2024-03-23T01:41:24;27.92;;;6.95;;
84745;SDS011;74975;51.922;6.480;2024-03-23T01:43:57;18.15;;;6.57;;
84745;SDS011;74975;51.922;6.480;2024-03-23T01:46:29;16.40;;;6.53;;
84745;SDS011;74975;51.922;6.480;2024-03-23T01:49:04;16.52;;;5.65;;
84745;SDS011;74975;51.922;6.480;2024-03-23T01:51:36;13.10;;;5.68;;
84745;SDS011;74975;51.922;6.480;2024-03-23T01:54:12;16.80;;;6.18;;
84745;SDS011;74975;51.922;6.480;2024-03-23T01:56:43;16.17;;;7.05;;
84745;SDS011;74975;51.922;6.480;2024-03-23T01:59:18;14.20;;;5.25;;
84745;SDS011;74975;51.922;6.480;2024-03-23T02:01:50;15.15;;;6.05;;
84745;SDS011;74975;51.922;6.480;2024-03-23T02:04:21;18.00;;;6.45;;
84745;SDS011;74975;51.922;6.480;2024-03-23T02:06:52;14.73;;;6.18;;
84745;SDS011;74975;51.922;6.480;2024-03-23T02:09:25;19.02;;;6.63;;
84745;SDS011;74975;51.922;6.480;2024-03-23T02:12:01;16.27;;;6.95;;
84745;SDS011;74975;51.922;6.480;2024-03-23T02:14:36;16.30;;;6.82;;
84745;SDS011;74975;51.922;6.480;2024-03-23T02:17:08;17.00;;;6.60;;
84745;SDS011;74975;51.922;6.480;2024-03-23T02:19:42;19.73;;;7.13;;
84745;SDS011;74975;51.922;6.480;2024-03-23T02:22:15;21.40;;;6.93;;
84745;SDS011;74975;51.922;6.480;2024-03-23T02:24:49;18.77;;;6.80;;
84745;SDS011;74975;51.922;6.480;2024-03-23T02:27:24;21.50;;;7.03;;
84745;SDS011;74975;51.922;6.480;2024-03-23T02:30:03;20.90;;;7.00;;
84745;SDS011;74975;51.922;6.480;2024-03-23T02:32:35;17.90;;;6.25;;
84745;SDS011;74975;51.922;6.480;2024-03-23T02:35:08;19.45;;;6.45;;
84745;SDS011;74975;51.922;6.480;2024-03-23T02:37:39;18.52;;;7.25;;
84745;SDS011;74975;51.922;6.480;2024-03-23T02:40:20;16.05;;;6.65;;
84745;SDS011;74975;51.922;6.480;2024-03-23T02:42:59;19.25;;;7.32;;
84745;SDS011;74975;51.922;6.480;2024-03-23T02:45:30;14.50;;;6.82;;
84745;SDS011;74975;51.922;6.480;2024-03-23T02:48:02;22.23;;;8.38;;
84745;SDS011;74975;51.922;6.480;2024-03-23T02:50:39;19.05;;;8.05;;
84745;SDS011;74975;51.922;6.480;2024-03-23T02:53:11;17.67;;;6.88;;
84745;SDS011;74975;51.922;6.480;2024-03-23T02:55:44;21.70;;;8.40;;
84745;SDS011;74975;51.922;6.480;2024-03-23T02:58:23;16.23;;;7.18;;
84745;SDS011;74975;51.922;6.480;2024-03-23T03:00:55;22.90;;;8.10;;
84745;SDS011;74975;51.922;6.480;2024-03-23T03:03:26;26.85;;;7.65;;
84745;SDS011;74975;51.922;6.480;2024-03-23T03:06:01;19.90;;;6.80;;
84745;SDS011;74975;51.922;6.480;2024-03-23T03:08:36;21.77;;;7.90;;
84745;SDS011;74975;51.922;6.480;2024-03-23T03:11:08;18.23;;;7.60;;
84745;SDS011;74975;51.922;6.480;2024-03-23T03:13:42;17.45;;;6.20;;
84745;SDS011;74975;51.922;6.480;2024-03-23T03:16:18;16.73;;;6.78;;
84745;SDS011;74975;51.922;6.480;2024-03-23T03:18:53;16.25;;;6.75;;
84745;SDS011;74975;51.922;6.480;2024-03-23T03:21:29;13.02;;;6.68;;
84745;SDS011;74975;51.922;6.480;2024-03-23T03:24:03;17.42;;;6.75;;
84745;SDS011;74975;51.922;6.480;2024-03-23T03:26:40;18.55;;;6.60;;
84745;SDS011;74975;51.922;6.480;2024-03-23T03:29:18;16.40;;;6.93;;
84745;SDS011;74975;51.922;6.480;2024-03-23T03:31:52;22.58;;;7.95;;
84745;SDS011;74975;51.922;6.480;2024-03-23T03:34:26;19.75;;;6.95;;
84745;SDS011;74975;51.922;6.480;2024-03-23T03:36:56;17.63;;;7.45;;
84745;SDS011;74975;51.922;6.480;2024-03-23T03:39:28;16.23;;;6.80;;
84745;SDS011;74975;51.922;6.480;2024-03-23T03:42:04;20.67;;;7.60;;
84745;SDS011;74975;51.922;6.480;2024-03-23T03:44:37;21.30;;;7.75;;
84745;SDS011;74975;51.922;6.480;2024-03-23T03:47:13;19.02;;;8.20;;
84745;SDS011;74975;51.922;6.480;2024-03-23T03:49:48;21.42;;;8.40;;
84745;SDS011;74975;51.922;6.480;2024-03-23T03:52:22;18.40;;;7.50;;
84745;SDS011;74975;51.922;6.480;2024-03-23T03:54:55;20.30;;;8.57;;
84745;SDS011;74975;51.922;6.480;2024-03-23T03:57:33;18.20;;;8.13;;
84745;SDS011;74975;51.922;6.480;2024-03-23T04:00:04;20.00;;;8.23;;
84745;SDS011;74975;51.922;6.480;2024-03-23T04:02:36;21.38;;;7.53;;
84745;SDS011;74975;51.922;6.480;2024-03-23T04:05:08;21.85;;;7.68;;
84745;SDS011;74975;51.922;6.480;2024-03-23T04:07:43;19.05;;;8.52;;
84745;SDS011;74975;51.922;6.480;2024-03-23T04:12:53;18.98;;;7.53;;
84745;SDS011;74975;51.922;6.480;2024-03-23T04:15:27;16.50;;;8.20;;
84745;SDS011;74975;51.922;6.480;2024-03-23T04:18:00;24.88;;;9.70;;
84745;SDS011;74975;51.922;6.480;2024-03-23T04:20:31;20.92;;;8.10;;
84745;SDS011;74975;51.922;6.480;2024-03-23T04:23:09;21.20;;;9.88;;
84745;SDS011;74975;51.922;6.480;2024-03-23T04:25:44;22.38;;;9.45;;
84745;SDS011;74975;51.922;6.480;2024-03-23T04:28:20;23.38;;;10.27;;
84745;SDS011;74975;51.922;6.480;2024-03-23T04:30:54;21.55;;;9.10;;
84745;SDS011;74975;51.922;6.480;2024-03-23T04:33:26;27.48;;;10.68;;
84745;SDS011;74975;51.922;6.480;2024-03-23T04:35:59;26.05;;;11.05;;
84745;SDS011;74975;51.922;6.480;2024-03-23T04:38:25;22.75;;;10.27;;
84745;SDS011;74975;51.922;6.480;2024-03-23T04:41:08;22.77;;;9.95;;
84745;SDS011;74975;51.922;6.480;2024-03-23T04:43:44;33.03;;;10.75;;
84745;SDS011;74975;51.922;6.480;2024-03-23T04:46:18;33.30;;;10.98;;
84745;SDS011;74975;51.922;6.480;2024-03-23T04:48:51;31.73;;;10.90;;
84745;SDS011;74975;51.922;6.480;2024-03-23T04:51:27;34.03;;;12.02;;
84745;SDS011;74975;51.922;6.480;2024-03-23T04:54:06;42.17;;;12.30;;
84745;SDS011;74975;51.922;6.480;2024-03-23T04:56:40;31.10;;;12.63;;
84745;SDS011;74975;51.922;6.480;2024-03-23T04:59:12;26.27;;;11.07;;
84745;SDS011;74975;51.922;6.480;2024-03-23T05:01:47;25.15;;;10.50;;
84745;SDS011;74975;51.922;6.480;2024-03-23T05:04:26;29.85;;;11.98;;
84745;SDS011;74975;51.922;6.480;2024-03-23T05:07:03;28.88;;;12.25;;
84745;SDS011;74975;51.922;6.480;2024-03-23T05:09:37;30.90;;;12.40;;
84745;SDS011;74975;51.922;6.480;2024-03-23T05:12:08;36.60;;;13.90;;
84745;SDS011;74975;51.922;6.480;2024-03-23T05:14:44;35.22;;;12.32;;
84745;SDS011;74975;51.922;6.480;2024-03-23T05:19:49;28.05;;;10.65;;
84745;SDS011;74975;51.922;6.480;2024-03-23T05:22:29;32.45;;;10.90;;
84745;SDS011;74975;51.922;6.480;2024-03-23T05:25:04;36.25;;;12.10;;
84745;SDS011;74975;51.922;6.480;2024-03-23T05:27:40;39.92;;;13.02;;
84745;SDS011;74975;51.922;6.480;2024-03-23T05:30:09;38.53;;;13.02;;
84745;SDS011;74975;51.922;6.480;2024-03-23T05:32:46;46.45;;;13.88;;
84745;SDS011;74975;51.922;6.480;2024-03-23T05:35:18;41.83;;;13.45;;
84745;SDS011;74975;51.922;6.480;2024-03-23T05:37:56;52.90;;;14.43;;
84745;SDS011;74975;51.922;6.480;2024-03-23T05:40:30;45.92;;;14.48;;
84745;SDS011;74975;51.922;6.480;2024-03-23T05:43:02;30.60;;;12.82;;
84745;SDS011;74975;51.922;6.480;2024-03-23T05:45:37;37.28;;;12.07;;
84745;SDS011;74975;51.922;6.480;2024-03-23T05:48:16;31.38;;;11.30;;
84745;SDS011;74975;51.922;6.480;2024-03-23T05:50:47;36.72;;;12.55;;
84745;SDS011;74975;51.922;6.480;2024-03-23T05:53:19;26.73;;;10.85;;
84745;SDS011;74975;51.922;6.480;2024-03-23T05:55:59;31.88;;;10.60;;
84745;SDS011;74975;51.922;6.480;2024-03-23T05:58:32;31.88;;;10.85;;
84745;SDS011;74975;51.922;6.480;2024-03-23T06:01:04;27.88;;;10.85;;
84745;SDS011;74975;51.922;6.480;2024-03-23T06:03:41;34.10;;;11.70;;
84745;SDS011;74975;51.922;6.480;2024-03-23T06:06:16;25.30;;;9.40;;
84745;SDS011;74975;51.922;6.480;2024-03-23T06:08:49;33.85;;;9.85;;
84745;SDS011;74975;51.922;6.480;2024-03-23T06:11:24;24.55;;;11.65;;
84745;SDS011;74975;51.922;6.480;2024-03-23T06:13:57;20.65;;;9.05;;
84745;SDS011;74975;51.922;6.480;2024-03-23T06:16:36;20.52;;;9.45;;
84745;SDS011;74975;51.922;6.480;2024-03-23T06:19:12;19.98;;;8.30;;
84745;SDS011;74975;51.922;6.480;2024-03-23T06:21:50;22.10;;;8.15;;
84745;SDS011;74975;51.922;6.480;2024-03-23T06:24:27;19.30;;;7.10;;
84745;SDS011;74975;51.922;6.480;2024-03-23T06:26:58;21.92;;;8.90;;
84745;SDS011;74975;51.922;6.480;2024-03-23T06:29:30;29.65;;;9.15;;
84745;SDS011;74975;51.922;6.480;2024-03-23T06:32:07;21.35;;;8.25;;
84745;SDS011;74975;51.922;6.480;2024-03-23T06:34:36;19.65;;;8.15;;
84745;SDS011;74975;51.922;6.480;2024-03-23T06:37:17;14.18;;;7.22;;
84745;SDS011;74975;51.922;6.480;2024-03-23T06:39:49;11.77;;;5.47;;
84745;SDS011;74975;51.922;6.480;2024-03-23T06:42:23;20.65;;;6.13;;
84745;SDS011;74975;51.922;6.480;2024-03-23T06:44:57;13.48;;;6.32;;
84745;SDS011;74975;51.922;6.480;2024-03-23T06:47:30;19.35;;;7.03;;
84745;SDS011;74975;51.922;6.480;2024-03-23T06:50:03;22.13;;;6.30;;
84745;SDS011;74975;51.922;6.480;2024-03-23T06:52:35;15.18;;;7.82;;
84745;SDS011;74975;51.922;6.480;2024-03-23T06:55:07;11.30;;;6.00;;
84745;SDS011;74975;51.922;6.480;2024-03-23T06:57:45;11.68;;;5.47;;
84745;SDS011;74975;51.922;6.480;2024-03-23T07:00:21;14.95;;;5.28;;
84745;SDS011;74975;51.922;6.480;2024-03-23T07:02:56;15.20;;;5.93;;
84745;SDS011;74975;51.922;6.480;2024-03-23T07:05:30;12.52;;;6.07;;
84745;SDS011;74975;51.922;6.480;2024-03-23T07:08:05;13.95;;;6.32;;
84745;SDS011;74975;51.922;6.480;2024-03-23T07:10:32;9.52;;;5.75;;
84745;SDS011;74975;51.922;6.480;2024-03-23T07:13:10;11.77;;;5.25;;
84745;SDS011;74975;51.922;6.480;2024-03-23T07:15:49;16.05;;;6.30;;
84745;SDS011;74975;51.922;6.480;2024-03-23T07:18:22;25.50;;;6.22;;
84745;SDS011;74975;51.922;6.480;2024-03-23T07:20:58;13.52;;;5.65;;
84745;SDS011;74975;51.922;6.480;2024-03-23T07:23:27;11.13;;;6.05;;
84745;SDS011;74975;51.922;6.480;2024-03-23T07:26:02;12.85;;;5.07;;
84745;SDS011;74975;51.922;6.480;2024-03-23T07:28:44;10.30;;;5.07;;
84745;SDS011;74975;51.922;6.480;2024-03-23T07:31:17;11.45;;;5.70;;
84745;SDS011;74975;51.922;6.480;2024-03-23T07:33:56;7.88;;;3.90;;
84745;SDS011;74975;51.922;6.480;2024-03-23T07:36:26;11.60;;;4.72;;
84745;SDS011;74975;51.922;6.480;2024-03-23T07:39:00;10.68;;;5.30;;
84745;SDS011;74975;51.922;6.480;2024-03-23T07:44:06;12.15;;;4.70;;
84745;SDS011;74975;51.922;6.480;2024-03-23T07:46:39;8.88;;;4.47;;
84745;SDS011;74975;51.922;6.480;2024-03-23T07:49:18;10.20;;;4.97;;
84745;SDS011;74975;51.922;6.480;2024-03-23T07:51:50;14.05;;;5.10;;
84745;SDS011;74975;51.922;6.480;2024-03-23T07:54:23;9.90;;;4.22;;
84745;SDS011;74975;51.922;6.480;2024-03-23T07:59:33;9.85;;;4.15;;
84745;SDS011;74975;51.922;6.480;2024-03-23T08:02:10;12.52;;;6.10;;
84745;SDS011;74975;51.922;6.480;2024-03-23T08:04:47;7.70;;;4.00;;
84745;SDS011;74975;51.922;6.480;2024-03-23T08:07:19;9.35;;;4.95;;
84745;SDS011;74975;51.922;6.480;2024-03-23T08:09:57;18.95;;;5.35;;
84745;SDS011;74975;51.922;6.480;2024-03-23T08:12:34;9.77;;;4.68;;
84745;SDS011;74975;51.922;6.480;2024-03-23T08:15:11;11.45;;;4.95;;
84745;SDS011;74975;51.922;6.480;2024-03-23T08:17:46;11.18;;;4.25;;
84745;SDS011;74975;51.922;6.480;2024-03-23T08:20:22;7.05;;;4.25;;
84745;SDS011;74975;51.922;6.480;2024-03-23T08:22:58;11.80;;;4.97;;
84745;SDS011;74975;51.922;6.480;2024-03-23T08:25:38;9.10;;;4.35;;
84745;SDS011;74975;51.922;6.480;2024-03-23T08:28:11;8.95;;;4.03;;
84745;SDS011;74975;51.922;6.480;2024-03-23T08:30:43;7.68;;;3.97;;
84745;SDS011;74975;51.922;6.480;2024-03-23T08:33:14;6.35;;;3.78;;
84745;SDS011;74975;51.922;6.480;2024-03-23T08:36:01;11.27;;;4.88;;
84745;SDS011;74975;51.922;6.480;2024-03-23T08:38:41;8.07;;;4.50;;
84745;SDS011;74975;51.922;6.480;2024-03-23T08:41:17;9.73;;;3.55;;
84745;SDS011;74975;51.922;6.480;2024-03-23T08:43:56;14.05;;;5.68;;
84745;SDS011;74975;51.922;6.480;2024-03-23T08:46:27;13.15;;;4.50;;
84745;SDS011;74975;51.922;6.480;2024-03-23T08:49:03;10.85;;;4.63;;
84745;SDS011;74975;51.922;6.480;2024-03-23T08:51:35;7.40;;;3.00;;
84745;SDS011;74975;51.922;6.480;2024-03-23T08:54:10;12.55;;;2.80;;
84745;SDS011;74975;51.922;6.480;2024-03-23T08:56:46;6.90;;;3.50;;
84745;SDS011;74975;51.922;6.480;2024-03-23T08:59:24;8.82;;;3.85;;
84745;SDS011;74975;51.922;6.480;2024-03-23T09:01:58;11.82;;;4.28;;
84745;SDS011;74975;51.922;6.480;2024-03-23T09:04:33;7.28;;;3.72;;
84745;SDS011;74975;51.922;6.480;2024-03-23T09:07:06;9.45;;;3.50;;
84745;SDS011;74975;51.922;6.480;2024-03-23T09:09:45;9.07;;;3.45;;
84745;SDS011;74975;51.922;6.480;2024-03-23T09:12:16;5.85;;;3.83;;
84745;SDS011;74975;51.922;6.480;2024-03-23T09:14:51;7.95;;;3.30;;
84745;SDS011;74975;51.922;6.480;2024-03-23T09:17:25;5.90;;;3.20;;
84745;SDS011;74975;51.922;6.480;2024-03-23T09:20:01;10.98;;;3.40;;
84745;SDS011;74975;51.922;6.480;2024-03-23T09:22:39;7.47;;;3.30;;
84745;SDS011;74975;51.922;6.480;2024-03-23T09:25:13;6.68;;;2.83;;
84745;SDS011;74975;51.922;6.480;2024-03-23T09:27:46;8.85;;;2.90;;
84745;SDS011;74975;51.922;6.480;2024-03-23T09:30:22;4.75;;;2.53;;
84745;SDS011;74975;51.922;6.480;2024-03-23T09:32:56;4.78;;;2.55;;
84745;SDS011;74975;51.922;6.480;2024-03-23T09:35:29;10.38;;;2.75;;
84745;SDS011;74975;51.922;6.480;2024-03-23T09:38:07;4.55;;;2.85;;
84745;SDS011;74975;51.922;6.480;2024-03-23T09:40:43;3.05;;;2.13;;
84745;SDS011;74975;51.922;6.480;2024-03-23T09:43:26;6.85;;;3.70;;
84745;SDS011;74975;51.922;6.480;2024-03-23T09:46:01;8.00;;;3.05;;
84745;SDS011;74975;51.922;6.480;2024-03-23T09:48:34;5.35;;;2.92;;
84745;SDS011;74975;51.922;6.480;2024-03-23T09:51:11;6.47;;;2.88;;
84745;SDS011;74975;51.922;6.480;2024-03-23T09:53:51;4.13;;;2.30;;
84745;SDS011;74975;51.922;6.480;2024-03-23T09:56:21;6.45;;;2.47;;
84745;SDS011;74975;51.922;6.480;2024-03-23T09:58:46;3.85;;;1.77;;
84745;SDS011;74975;51.922;6.480;2024-03-23T10:01:24;3.17;;;1.92;;
84745;SDS011;74975;51.922;6.480;2024-03-23T10:03:57;3.65;;;2.10;;
84745;SDS011;74975;51.922;6.480;2024-03-23T10:06:37;3.50;;;2.17;;
84745;SDS011;74975;51.922;6.480;2024-03-23T10:09:25;4.88;;;2.80;;
84745;SDS011;74975;51.922;6.480;2024-03-23T10:11:56;7.97;;;3.03;;
84745;SDS011;74975;51.922;6.480;2024-03-23T10:14:46;6.05;;;2.00;;
84745;SDS011;74975;51.922;6.480;2024-03-23T10:17:22;4.68;;;1.70;;
84745;SDS011;74975;51.922;6.480;2024-03-23T10:19:55;5.05;;;2.25;;
84745;SDS011;74975;51.922;6.480;2024-03-23T10:22:34;6.47;;;2.65;;
84745;SDS011;74975;51.922;6.480;2024-03-23T10:28:02;5.00;;;2.47;;
84745;SDS011;74975;51.922;6.480;2024-03-23T10:30:34;10.07;;;2.80;;
84745;SDS011;74975;51.922;6.480;2024-03-23T10:33:12;5.43;;;2.38;;
84745;SDS011;74975;51.922;6.480;2024-03-23T10:35:48;8.05;;;2.70;;
84745;SDS011;74975;51.922;6.480;2024-03-23T10:38:21;5.53;;;4.80;;
84745;SDS011;74975;51.922;6.480;2024-03-23T10:40:57;4.22;;;2.17;;
84745;SDS011;74975;51.922;6.480;2024-03-23T10:43:30;4.63;;;2.58;;
84745;SDS011;74975;51.922;6.480;2024-03-23T10:46:07;8.95;;;2.92;;
84745;SDS011;74975;51.922;6.480;2024-03-23T10:48:44;7.70;;;3.28;;
84745;SDS011;74975;51.922;6.480;2024-03-23T10:51:12;7.97;;;3.30;;
84745;SDS011;74975;51.922;6.480;2024-03-23T10:53:53;7.22;;;2.90;;
84745;SDS011;74975;51.922;6.480;2024-03-23T10:56:44;4.80;;;2.85;;
84745;SDS011;74975;51.922;6.480;2024-03-23T10:59:26;8.60;;;2.75;;
84745;SDS011;74975;51.922;6.480;2024-03-23T11:02:02;6.68;;;3.38;;
84745;SDS011;74975;51.922;6.480;2024-03-23T11:04:39;8.07;;;3.03;;
84745;SDS011;74975;51.922;6.480;2024-03-23T11:09:57;5.68;;;2.60;;
84745;SDS011;74975;51.922;6.480;2024-03-23T11:12:32;3.60;;;2.53;;
84745;SDS011;74975;51.922;6.480;2024-03-23T11:15:16;8.77;;;3.40;;
84745;SDS011;74975;51.922;6.480;2024-03-23T11:23:25;4.22;;;2.35;;
84745;SDS011;74975;51.922;6.480;2024-03-23T11:25:58;6.47;;;2.60;;
84745;SDS011;74975;51.922;6.480;2024-03-23T11:28:33;3.92;;;2.13;;
84745;SDS011;74975;51.922;6.480;2024-03-23T11:31:15;6.03;;;3.20;;
84745;SDS011;74975;51.922;6.480;2024-03-23T11:34:01;6.60;;;3.22;;
84745;SDS011;74975;51.922;6.480;2024-03-23T11:36:37;3.92;;;2.85;;
84745;SDS011;74975;51.922;6.480;2024-03-23T11:39:19;7.18;;;3.13;;
84745;SDS011;74975;51.922;6.480;2024-03-23T11:41:54;5.85;;;2.15;;
84745;SDS011;74975;51.922;6.480;2024-03-23T11:44:33;4.68;;;2.40;;
84745;SDS011;74975;51.922;6.480;2024-03-23T11:47:11;8.93;;;3.38;;
84745;SDS011;74975;51.922;6.480;2024-03-23T11:52:13;9.82;;;3.15;;
84745;SDS011;74975;51.922;6.480;2024-03-23T11:57:13;5.45;;;2.80;;
84745;SDS011;74975;51.922;6.480;2024-03-23T11:59:44;4.22;;;2.47;;
84745;SDS011;74975;51.922;6.480;2024-03-23T12:02:19;5.75;;;2.30;;
84745;SDS011;74975;51.922;6.480;2024-03-23T12:04:47;6.55;;;2.60;;
84745;SDS011;74975;51.922;6.480;2024-03-23T12:07:19;3.03;;;2.42;;
84745;SDS011;74975;51.922;6.480;2024-03-23T12:10:07;7.47;;;2.83;;
84745;SDS011;74975;51.922;6.480;2024-03-23T12:12:39;5.32;;;2.17;;
84745;SDS011;74975;51.922;6.480;2024-03-23T12:15:14;7.55;;;3.05;;
84745;SDS011;74975;51.922;6.480;2024-03-23T12:17:50;7.82;;;2.40;;
84745;SDS011;74975;51.922;6.480;2024-03-23T12:20:22;7.95;;;3.30;;
84745;SDS011;74975;51.922;6.480;2024-03-23T12:23:04;6.45;;;3.83;;
84745;SDS011;74975;51.922;6.480;2024-03-23T12:25:42;7.57;;;2.83;;
84745;SDS011;74975;51.922;6.480;2024-03-23T12:28:17;6.13;;;2.60;;
84745;SDS011;74975;51.922;6.480;2024-03-23T12:30:47;6.90;;;2.70;;
84745;SDS011;74975;51.922;6.480;2024-03-23T12:33:25;6.00;;;2.22;;
84745;SDS011;74975;51.922;6.480;2024-03-23T12:35:57;3.72;;;1.60;;
84745;SDS011;74975;51.922;6.480;2024-03-23T12:38:27;3.30;;;1.77;;
84745;SDS011;74975;51.922;6.480;2024-03-23T12:41:06;7.43;;;2.25;;
84745;SDS011;74975;51.922;6.480;2024-03-23T12:43:44;8.70;;;1.98;;
84745;SDS011;74975;51.922;6.480;2024-03-23T12:46:20;5.13;;;1.85;;
84745;SDS011;74975;51.922;6.480;2024-03-23T12:48:54;2.78;;;1.80;;
84745;SDS011;74975;51.922;6.480;2024-03-23T12:51:29;4.55;;;1.80;;
84745;SDS011;74975;51.922;6.480;2024-03-23T12:54:09;6.93;;;3.28;;
84745;SDS011;74975;51.922;6.480;2024-03-23T12:56:34;6.40;;;2.38;;
84745;SDS011;74975;51.922;6.480;2024-03-23T12:59:14;4.38;;;1.92;;
84745;SDS011;74975;51.922;6.480;2024-03-23T13:01:46;2.60;;;1.60;;
84745;SDS011;74975;51.922;6.480;2024-03-23T13:04:24;6.93;;;2.15;;
84745;SDS011;74975;51.922;6.480;2024-03-23T13:06:56;5.30;;;2.20;;
84745;SDS011;74975;51.922;6.480;2024-03-23T13:09:36;3.90;;;1.90;;
84745;SDS011;74975;51.922;6.480;2024-03-23T13:12:08;4.63;;;2.13;;
84745;SDS011;74975;51.922;6.480;2024-03-23T13:14:44;4.40;;;1.95;;
84745;SDS011;74975;51.922;6.480;2024-03-23T13:17:19;6.97;;;2.38;;
84745;SDS011;74975;51.922;6.480;2024-03-23T13:19:52;4.15;;;2.00;;
84745;SDS011;74975;51.922;6.480;2024-03-23T13:22:27;3.03;;;2.15;;
84745;SDS011;74975;51.922;6.480;2024-03-23T13:24:58;4.35;;;1.92;;
84745;SDS011;74975;51.922;6.480;2024-03-23T13:27:36;7.47;;;2.42;;
84745;SDS011;74975;51.922;6.480;2024-03-23T13:30:09;7.50;;;2.63;;
84745;SDS011;74975;51.922;6.480;2024-03-23T13:32:41;4.38;;;2.03;;
84745;SDS011;74975;51.922;6.480;2024-03-23T13:35:16;4.95;;;2.42;;
84745;SDS011;74975;51.922;6.480;2024-03-23T13:37:56;5.00;;;2.45;;
84745;SDS011;74975;51.922;6.480;2024-03-23T13:40:34;5.65;;;2.75;;
84745;SDS011;74975;51.922;6.480;2024-03-23T13:43:07;6.53;;;2.65;;
84745;SDS011;74975;51.922;6.480;2024-03-23T13:45:38;5.90;;;2.70;;
84745;SDS011;74975;51.922;6.480;2024-03-23T13:48:11;3.05;;;1.77;;
84745;SDS011;74975;51.922;6.480;2024-03-23T13:50:44;6.63;;;2.83;;
84745;SDS011;74975;51.922;6.480;2024-03-23T13:53:15;8.50;;;2.75;;
84745;SDS011;74975;51.922;6.480;2024-03-23T13:55:54;4.95;;;2.67;;
84745;SDS011;74975;51.922;6.480;2024-03-23T13:58:20;6.88;;;3.75;;
84745;SDS011;74975;51.922;6.480;2024-03-23T14:00:52;4.35;;;2.85;;
84745;SDS011;74975;51.922;6.480;2024-03-23T14:03:21;9.02;;;3.03;;
84745;SDS011;74975;51.922;6.480;2024-03-23T14:05:57;6.00;;;2.20;;
84745;SDS011;74975;51.922;6.480;2024-03-23T14:08:23;3.70;;;1.90;;
84745;SDS011;74975;51.922;6.480;2024-03-23T14:10:48;4.25;;;1.55;;
84745;SDS011;74975;51.922;6.480;2024-03-23T14:13:14;5.22;;;2.15;;
84745;SDS011;74975;51.922;6.480;2024-03-23T14:15:45;3.13;;;1.85;;
84745;SDS011;74975;51.922;6.480;2024-03-23T14:18:18;3.58;;;1.98;;
84745;SDS011;74975;51.922;6.480;2024-03-23T14:20:44;2.53;;;1.85;;
84745;SDS011;74975;51.922;6.480;2024-03-23T14:23:16;6.75;;;1.92;;
84745;SDS011;74975;51.922;6.480;2024-03-23T14:25:48;10.23;;;2.75;;
84745;SDS011;74975;51.922;6.480;2024-03-23T14:28:21;7.38;;;2.83;;
84745;SDS011;74975;51.922;6.480;2024-03-23T14:30:48;2.97;;;1.85;;
84745;SDS011;74975;51.922;6.480;2024-03-23T14:33:21;4.53;;;2.28;;
84745;SDS011;74975;51.922;6.480;2024-03-23T14:35:55;6.47;;;2.00;;
84745;SDS011;74975;51.922;6.480;2024-03-23T14:38:25;4.00;;;1.60;;
84745;SDS011;74975;51.922;6.480;2024-03-23T14:40:57;3.90;;;1.83;;
84745;SDS011;74975;51.922;6.480;2024-03-23T14:43:29;3.17;;;1.90;;
84745;SDS011;74975;51.922;6.480;2024-03-23T14:48:44;2.40;;;1.73;;
84745;SDS011;74975;51.922;6.480;2024-03-23T14:51:25;3.67;;;2.13;;
84745;SDS011;74975;51.922;6.480;2024-03-23T14:53:59;4.47;;;2.50;;
84745;SDS011;74975;51.922;6.480;2024-03-23T14:56:37;4.93;;;2.20;;
84745;SDS011;74975;51.922;6.480;2024-03-23T14:59:11;7.47;;;2.15;;
84745;SDS011;74975;51.922;6.480;2024-03-23T15:01:45;8.15;;;2.40;;
84745;SDS011;74975;51.922;6.480;2024-03-23T15:04:14;3.90;;;1.45;;
84745;SDS011;74975;51.922;6.480;2024-03-23T15:06:45;5.38;;;2.33;;
84745;SDS011;74975;51.922;6.480;2024-03-23T15:09:24;6.13;;;3.30;;
84745;SDS011;74975;51.922;6.480;2024-03-23T15:12:00;5.13;;;1.50;;
84745;SDS011;74975;51.922;6.480;2024-03-23T15:14:38;5.00;;;2.33;;
84745;SDS011;74975;51.922;6.480;2024-03-23T15:17:14;2.45;;;2.20;;
84745;SDS011;74975;51.922;6.480;2024-03-23T15:19:50;9.35;;;3.03;;
84745;SDS011;74975;51.922;6.480;2024-03-23T15:22:26;5.78;;;2.08;;
84745;SDS011;74975;51.922;6.480;2024-03-23T15:25:02;5.90;;;1.70;;
84745;SDS011;74975;51.922;6.480;2024-03-23T15:27:33;4.30;;;2.17;;
84745;SDS011;74975;51.922;6.480;2024-03-23T15:30:05;6.10;;;2.22;;
84745;SDS011;74975;51.922;6.480;2024-03-23T15:32:39;3.70;;;1.95;;
84745;SDS011;74975;51.922;6.480;2024-03-23T15:35:18;5.57;;;2.08;;
84745;SDS011;74975;51.922;6.480;2024-03-23T15:37:52;3.20;;;2.05;;
84745;SDS011;74975;51.922;6.480;2024-03-23T15:40:27;4.72;;;1.80;;
84745;SDS011;74975;51.922;6.480;2024-03-23T15:42:59;2.80;;;2.15;;
84745;SDS011;74975;51.922;6.480;2024-03-23T15:45:31;3.92;;;2.00;;
84745;SDS011;74975;51.922;6.480;2024-03-23T15:48:03;2.70;;;1.75;;
84745;SDS011;74975;51.922;6.480;2024-03-23T15:50:36;4.60;;;2.38;;
84745;SDS011;74975;51.922;6.480;2024-03-23T15:53:10;3.53;;;2.13;;
84745;SDS011;74975;51.922;6.480;2024-03-23T15:55:42;3.65;;;2.22;;
84745;SDS011;74975;51.922;6.480;2024-03-23T15:58:16;4.63;;;2.28;;
84745;SDS011;74975;51.922;6.480;2024-03-23T16:00:55;4.38;;;2.10;;
84745;SDS011;74975;51.922;6.480;2024-03-23T16:03:31;3.90;;;2.78;;
84745;SDS011;74975;51.922;6.480;2024-03-23T16:06:04;4.28;;;2.67;;
84745;SDS011;74975;51.922;6.480;2024-03-23T16:08:38;7.78;;;3.95;;
84745;SDS011;74975;51.922;6.480;2024-03-23T16:11:10;5.50;;;2.42;;
84745;SDS011;74975;51.922;6.480;2024-03-23T16:13:41;4.03;;;2.60;;
84745;SDS011;74975;51.922;6.480;2024-03-23T16:16:14;5.28;;;2.53;;
84745;SDS011;74975;51.922;6.480;2024-03-23T16:18:47;4.53;;;2.15;;
84745;SDS011;74975;51.922;6.480;2024-03-23T16:21:18;4.78;;;2.05;;
84745;SDS011;74975;51.922;6.480;2024-03-23T16:23:49;7.50;;;1.80;;
84745;SDS011;74975;51.922;6.480;2024-03-23T16:26:23;4.80;;;2.00;;
84745;SDS011;74975;51.922;6.480;2024-03-23T16:28:55;3.38;;;1.60;;
84745;SDS011;74975;51.922;6.480;2024-03-23T16:31:26;4.55;;;2.30;;
84745;SDS011;74975;51.922;6.480;2024-03-23T16:34:00;5.97;;;2.30;;
84745;SDS011;74975;51.922;6.480;2024-03-23T16:36:35;6.72;;;2.38;;
84745;SDS011;74975;51.922;6.480;2024-03-23T16:39:06;3.05;;;1.92;;
84745;SDS011;74975;51.922;6.480;2024-03-23T16:41:40;4.38;;;2.47;;
84745;SDS011;74975;51.922;6.480;2024-03-23T16:44:12;3.17;;;1.65;;
84745;SDS011;74975;51.922;6.480;2024-03-23T16:46:47;2.33;;;2.13;;